Time;durP1;ratioP1;P1;durP2;ratioP2;P2;SDS_P1;SDS_P2;PMS_P1;PMS_P2;Temp;Humidity;BMP_temperature;BMP_pressure;BME280_temperature;BME280_humidity;BME280_pressure;Samples;Min_cycle;Max_cycle;Signal;HPM_P1;HPM_P2
2022/02/20 00:00:45;;;;;;;8.27;2.50;;;7.60;99.90;;;;;;4998136;28;20049;-60
2022/02/20 00:03:12;;;;;;;7.18;2.17;;;7.50;99.90;;;;;;4982680;28;20058;-60
2022/02/20 00:05:38;;;;;;;11.48;2.63;;;7.50;99.90;;;;;;4996417;28;20141;-61
2022/02/20 00:08:05;;;;;;;7.75;2.33;;;7.50;99.90;;;;;;4982225;28;20133;-60
2022/02/20 00:10:32;;;;;;;11.65;2.58;;;7.50;99.90;;;;;;4989775;28;20129;-60
2022/02/20 00:12:59;;;;;;;9.55;3.17;;;7.40;99.90;;;;;;4995180;28;20066;-59
2022/02/20 00:15:26;;;;;;;12.15;2.90;;;7.40;99.90;;;;;;4999368;28;20233;-60
2022/02/20 00:17:54;;;;;;;7.10;2.03;;;7.50;99.90;;;;;;4999613;28;20097;-60
2022/02/20 00:20:21;;;;;;;9.20;2.60;;;7.40;99.90;;;;;;4989059;28;20569;-59
2022/02/20 00:22:49;;;;;;;9.90;3.17;;;7.50;99.90;;;;;;4986744;28;20054;-60
2022/02/20 00:25:16;;;;;;;10.65;3.22;;;7.60;99.90;;;;;;4996685;28;20088;-59
2022/02/20 00:27:47;;;;;;;9.90;2.67;;;7.60;99.90;;;;;;4992421;28;20513;-60
2022/02/20 00:30:14;;;;;;;12.82;3.10;;;7.70;99.90;;;;;;4986625;28;20509;-60
2022/02/20 00:32:42;;;;;;;13.88;3.60;;;7.80;99.90;;;;;;4999726;28;20203;-60
2022/02/20 00:35:09;;;;;;;12.80;3.25;;;7.80;99.90;;;;;;4993929;28;20459;-60
2022/02/20 00:37:36;;;;;;;14.55;3.80;;;7.90;99.90;;;;;;4997081;28;20409;-60
2022/02/20 00:40:03;;;;;;;14.27;4.07;;;7.90;99.90;;;;;;4995167;28;20121;-60
2022/02/20 00:42:29;;;;;;;10.32;3.25;;;8.00;99.90;;;;;;5002050;28;20133;-59
2022/02/20 00:44:56;;;;;;;8.52;2.92;;;8.00;99.90;;;;;;5000004;28;20204;-60
2022/02/20 00:47:24;;;;;;;10.23;2.83;;;8.10;99.90;;;;;;5000143;28;20061;-60
2022/02/20 00:49:50;;;;;;;9.07;2.65;;;8.10;99.90;;;;;;5000537;28;20145;-60
2022/02/20 00:52:17;;;;;;;10.27;2.97;;;8.10;99.90;;;;;;5001846;28;20133;-59
2022/02/20 00:54:44;;;;;;;8.30;2.92;;;8.10;99.90;;;;;;5002645;28;20136;-60
2022/02/20 00:57:10;;;;;;;12.15;3.70;;;8.10;99.90;;;;;;5011684;28;20148;-60
2022/02/20 00:59:37;;;;;;;13.68;4.03;;;8.20;99.90;;;;;;5019855;28;20461;-60
2022/02/20 01:02:04;;;;;;;12.20;3.90;;;8.20;99.90;;;;;;5013423;28;20125;-60
2022/02/20 01:04:30;;;;;;;8.02;3.22;;;8.20;99.90;;;;;;5001135;28;20521;-61
2022/02/20 01:06:57;;;;;;;13.73;3.78;;;8.20;99.90;;;;;;4996250;28;20046;-60
2022/02/20 01:09:24;;;;;;;12.98;3.30;;;8.30;99.90;;;;;;4998878;28;20054;-60
2022/02/20 01:11:51;;;;;;;9.75;2.83;;;8.30;99.90;;;;;;5001138;28;20112;-60
2022/02/20 01:14:18;;;;;;;12.98;3.25;;;8.30;99.90;;;;;;5000793;28;20136;-60
2022/02/20 01:16:45;;;;;;;11.18;3.38;;;8.30;99.90;;;;;;5001230;28;20046;-60
2022/02/20 01:19:12;;;;;;;11.75;3.67;;;8.30;99.90;;;;;;5000588;28;20244;-59
2022/02/20 01:21:39;;;;;;;8.80;2.63;;;8.30;99.90;;;;;;5002522;28;20084;-59
2022/02/20 01:24:06;;;;;;;7.65;3.38;;;8.30;99.90;;;;;;5001421;28;20130;-59
2022/02/20 01:26:32;;;;;;;11.40;3.28;;;8.30;99.90;;;;;;5001196;28;20132;-59
2022/02/20 01:28:59;;;;;;;12.02;3.15;;;8.30;99.90;;;;;;5000776;28;20057;-58
2022/02/20 01:31:26;;;;;;;10.50;3.38;;;8.30;99.90;;;;;;5002313;28;20092;-62
2022/02/20 01:33:52;;;;;;;14.77;3.65;;;8.30;99.90;;;;;;5001497;28;20136;-59
2022/02/20 01:36:19;;;;;;;12.18;3.45;;;8.40;99.90;;;;;;5002162;28;20081;-59
2022/02/20 01:38:46;;;;;;;8.15;2.65;;;8.40;99.90;;;;;;5000970;28;20779;-59
2022/02/20 01:41:16;;;;;;;8.70;2.38;;;8.40;99.90;;;;;;4989468;28;20491;-59
2022/02/20 01:43:43;;;;;;;11.40;3.05;;;8.50;99.90;;;;;;4985510;28;20541;-59
2022/02/20 01:46:10;;;;;;;9.80;3.45;;;8.50;99.90;;;;;;4999459;28;20054;-59
2022/02/20 01:48:37;;;;;;;10.23;3.53;;;8.60;99.90;;;;;;5002247;28;20625;-59
2022/02/20 01:51:04;;;;;;;11.43;3.22;;;8.60;99.90;;;;;;5001613;28;20081;-58
2022/02/20 01:53:31;;;;;;;9.43;2.85;;;8.60;99.90;;;;;;5000790;28;20053;-60
2022/02/20 01:55:58;;;;;;;11.70;4.07;;;8.70;99.90;;;;;;5001709;28;20096;-59
2022/02/20 01:58:24;;;;;;;9.13;2.78;;;8.70;99.90;;;;;;5002084;28;20065;-59
2022/02/20 02:00:51;;;;;;;8.90;3.00;;;8.80;99.90;;;;;;5000874;28;20101;-59
2022/02/20 02:03:20;;;;;;;14.10;4.07;;;8.80;99.90;;;;;;5001713;28;20057;-59
2022/02/20 02:05:47;;;;;;;16.05;4.32;;;8.90;99.90;;;;;;5000865;28;20061;-59
2022/02/20 02:08:17;;;;;;;10.55;2.97;;;8.90;99.90;;;;;;5000166;28;20423;-59
2022/02/20 02:10:45;;;;;;;14.25;3.55;;;9.00;99.90;;;;;;4999393;28;20100;-59
2022/02/20 02:13:12;;;;;;;9.77;3.25;;;9.00;99.90;;;;;;5000234;28;20134;-60
2022/02/20 02:15:49;;;;;;;10.80;3.58;;;9.10;99.90;;;;;;5000214;28;20066;-58
2022/02/20 02:18:16;;;;;;;12.43;3.63;;;9.20;99.90;;;;;;5002065;28;20061;-59
2022/02/20 02:20:43;;;;;;;13.57;3.55;;;9.20;99.90;;;;;;5001674;28;20073;-59
2022/02/20 02:23:11;;;;;;;13.82;3.90;;;9.20;99.90;;;;;;5000742;28;20092;-60
2022/02/20 02:25:38;;;;;;;15.27;3.53;;;9.30;99.90;;;;;;5000858;28;20133;-59
2022/02/20 02:28:05;;;;;;;9.55;2.80;;;9.30;99.90;;;;;;5001589;28;20132;-59
2022/02/20 02:30:31;;;;;;;10.15;3.67;;;9.40;99.90;;;;;;5000731;28;20132;-59
2022/02/20 02:32:58;;;;;;;12.18;3.25;;;9.40;99.90;;;;;;5006507;28;20149;-59
2022/02/20 02:35:25;;;;;;;11.35;2.90;;;9.50;99.90;;;;;;5006782;28;20092;-59
2022/02/20 02:37:53;;;;;;;9.68;3.17;;;9.60;99.90;;;;;;5003746;28;20520;-57
2022/02/20 02:40:20;;;;;;;11.30;3.13;;;9.60;99.90;;;;;;5004505;28;20090;-59
2022/02/20 02:42:47;;;;;;;9.68;2.83;;;9.60;99.90;;;;;;5005810;28;20115;-60
2022/02/20 02:45:14;;;;;;;11.68;3.45;;;9.70;99.90;;;;;;5004803;28;20124;-59
2022/02/20 02:47:47;;;;;;;9.77;2.75;;;9.70;99.90;;;;;;5006698;28;20085;-59
2022/02/20 02:50:14;;;;;;;6.60;2.70;;;9.80;99.90;;;;;;4991085;28;20181;-59
2022/02/20 02:52:40;;;;;;;8.25;2.80;;;9.90;99.90;;;;;;5006847;28;20632;-60
2022/02/20 02:55:07;;;;;;;10.73;3.75;;;10.00;99.90;;;;;;5006975;28;20089;-59
2022/02/20 02:57:34;;;;;;;9.82;2.53;;;10.00;99.90;;;;;;5006067;28;20085;-59
2022/02/20 03:00:01;;;;;;;8.30;2.85;;;10.10;99.90;;;;;;5004938;28;20137;-58
2022/02/20 03:02:27;;;;;;;10.23;2.35;;;10.20;99.90;;;;;;5006967;28;20049;-60
2022/02/20 03:04:54;;;;;;;9.23;2.83;;;10.20;99.90;;;;;;5000452;28;20046;-59
2022/02/20 03:07:22;;;;;;;11.60;2.95;;;10.30;99.90;;;;;;5003242;28;20184;-59
2022/02/20 03:09:48;;;;;;;8.90;2.45;;;10.30;99.90;;;;;;5004765;28;20134;-58
2022/02/20 03:12:15;;;;;;;13.07;3.10;;;10.30;99.90;;;;;;5005821;28;20559;-60
2022/02/20 03:14:42;;;;;;;12.85;4.30;;;10.30;99.90;;;;;;5004054;28;20506;-59
2022/02/20 03:17:09;;;;;;;9.30;2.58;;;10.40;99.90;;;;;;5006212;28;20129;-60
2022/02/20 03:19:35;;;;;;;11.07;3.08;;;10.50;99.90;;;;;;5006379;28;20095;-61
2022/02/20 03:22:02;;;;;;;9.15;2.90;;;10.50;99.90;;;;;;5006591;28;20136;-60
2022/02/20 03:24:29;;;;;;;8.75;2.83;;;10.50;99.90;;;;;;5005518;28;20085;-58
2022/02/20 03:26:56;;;;;;;11.23;3.05;;;10.50;99.90;;;;;;5006373;28;20502;-60
2022/02/20 03:29:22;;;;;;;8.00;3.20;;;10.50;99.90;;;;;;5004050;28;20130;-59
2022/02/20 03:31:49;;;;;;;9.57;2.58;;;10.60;99.90;;;;;;5006718;28;20576;-61
2022/02/20 03:34:16;;;;;;;9.50;2.78;;;10.70;99.90;;;;;;5004139;28;20077;-60
2022/02/20 03:36:43;;;;;;;13.45;2.88;;;10.60;99.90;;;;;;5004313;28;20074;-58
2022/02/20 03:39:09;;;;;;;10.77;3.13;;;10.70;99.90;;;;;;5005848;28;20132;-61
2022/02/20 03:41:36;;;;;;;10.85;2.83;;;10.80;99.90;;;;;;5005434;28;20048;-59
2022/02/20 03:44:03;;;;;;;7.70;2.50;;;10.80;99.90;;;;;;5004628;28;20179;-60
2022/02/20 03:46:31;;;;;;;10.88;3.17;;;10.80;99.90;;;;;;5005835;28;20054;-59
2022/02/20 03:48:57;;;;;;;12.43;2.97;;;10.80;99.90;;;;;;5005753;28;20112;-59
2022/02/20 03:51:24;;;;;;;12.15;3.45;;;10.80;99.90;;;;;;5006471;28;20128;-60
2022/02/20 03:53:51;;;;;;;10.40;3.83;;;10.90;99.90;;;;;;5004070;28;20089;-60
2022/02/20 03:56:18;;;;;;;10.15;3.72;;;10.90;99.90;;;;;;5005373;28;20081;-59
2022/02/20 03:58:44;;;;;;;11.10;3.25;;;10.90;99.90;;;;;;5004811;28;20050;-60
2022/02/20 04:01:11;;;;;;;9.25;3.38;;;11.00;99.90;;;;;;5005847;28;20225;-60
2022/02/20 04:03:38;;;;;;;11.75;2.70;;;11.00;99.90;;;;;;5005022;28;20497;-60
2022/02/20 04:06:05;;;;;;;10.93;3.05;;;11.00;99.90;;;;;;5005019;28;20133;-61
2022/02/20 04:08:32;;;;;;;9.35;2.72;;;11.00;99.90;;;;;;5004749;28;20711;-59
2022/02/20 04:10:59;;;;;;;12.70;3.15;;;11.00;99.90;;;;;;5003900;28;20121;-60
2022/02/20 04:13:26;;;;;;;11.13;3.03;;;11.00;99.90;;;;;;5005822;28;20050;-60
2022/02/20 04:15:53;;;;;;;9.98;3.03;;;11.00;99.90;;;;;;5004259;28;20430;-60
2022/02/20 04:18:20;;;;;;;11.60;2.92;;;11.00;99.90;;;;;;5006068;28;20073;-60
2022/02/20 04:20:47;;;;;;;8.27;2.88;;;11.10;99.90;;;;;;5004687;28;20579;-60
2022/02/20 04:23:14;;;;;;;10.57;3.58;;;11.10;99.90;;;;;;5005746;28;20046;-59
2022/02/20 04:25:41;;;;;;;10.88;2.95;;;11.10;99.90;;;;;;5002559;28;20442;-60
2022/02/20 04:28:07;;;;;;;11.65;4.03;;;11.10;99.90;;;;;;5004645;28;20132;-61
2022/02/20 04:30:34;;;;;;;13.50;3.25;;;11.10;99.90;;;;;;5004066;28;20142;-60
2022/02/20 04:33:01;;;;;;;11.57;3.50;;;11.10;99.90;;;;;;5004880;28;20784;-60
2022/02/20 04:35:28;;;;;;;17.13;3.47;;;11.00;99.90;;;;;;5005114;28;20089;-60
2022/02/20 04:37:55;;;;;;;12.13;4.60;;;10.90;99.90;;;;;;5004635;28;20050;-59
2022/02/20 04:40:21;;;;;;;12.18;3.78;;;10.90;99.90;;;;;;5003836;28;20077;-60
2022/02/20 04:42:51;;;;;;;14.25;3.97;;;10.90;99.90;;;;;;5004858;28;20140;-59
2022/02/20 04:45:18;;;;;;;19.77;4.32;;;10.90;99.90;;;;;;5003228;28;20046;-59
2022/02/20 04:47:45;;;;;;;15.00;4.00;;;11.00;99.90;;;;;;5003655;28;20096;-59
2022/02/20 04:50:12;;;;;;;13.85;3.65;;;11.10;99.90;;;;;;5003216;28;20054;-60
2022/02/20 04:52:39;;;;;;;15.38;5.10;;;11.00;99.90;;;;;;5003017;28;20156;-61
2022/02/20 04:55:06;;;;;;;12.95;3.83;;;11.00;99.90;;;;;;5003200;28;20056;-60
2022/02/20 04:57:33;;;;;;;16.90;4.68;;;10.80;99.90;;;;;;5003861;28;20139;-60
2022/02/20 05:00:00;;;;;;;11.25;3.15;;;10.70;99.90;;;;;;5003288;28;20161;-60
2022/02/20 05:02:27;;;;;;;14.82;4.22;;;10.50;99.90;;;;;;5004848;28;20445;-60
2022/02/20 05:04:54;;;;;;;14.55;3.92;;;10.50;99.90;;;;;;5004422;28;20132;-60
2022/02/20 05:07:21;;;;;;;14.93;4.18;;;10.50;99.90;;;;;;5004517;28;20057;-60
2022/02/20 05:09:48;;;;;;;10.25;3.42;;;10.50;99.90;;;;;;5003389;28;20106;-59
2022/02/20 05:12:15;;;;;;;16.15;4.47;;;10.60;99.90;;;;;;5002191;28;20135;-60
2022/02/20 05:14:41;;;;;;;11.75;4.43;;;10.60;99.90;;;;;;5002460;28;20473;-60
2022/02/20 05:17:11;;;;;;;18.08;4.53;;;10.70;99.90;;;;;;5004106;28;20128;-60
2022/02/20 05:19:39;;;;;;;15.40;4.20;;;10.70;99.90;;;;;;5003324;28;20137;-60
2022/02/20 05:22:05;;;;;;;21.20;5.63;;;10.80;99.90;;;;;;5004063;28;20145;-60
2022/02/20 05:24:32;;;;;;;14.13;4.38;;;10.80;99.90;;;;;;5001587;28;20078;-60
2022/02/20 05:26:59;;;;;;;14.82;4.68;;;10.90;99.90;;;;;;5002044;28;20454;-60
2022/02/20 05:29:26;;;;;;;17.55;4.53;;;10.90;99.90;;;;;;5003006;28;20050;-60
2022/02/20 05:31:53;;;;;;;17.77;4.93;;;10.90;99.90;;;;;;5003918;28;20104;-59
2022/02/20 05:34:19;;;;;;;18.20;4.32;;;10.90;99.90;;;;;;5003532;28;20081;-61
2022/02/20 05:36:46;;;;;;;21.25;4.95;;;10.90;99.90;;;;;;5004318;28;20141;-60
2022/02/20 05:39:13;;;;;;;14.10;5.35;;;10.90;99.90;;;;;;4993084;28;20093;-60
2022/02/20 05:41:40;;;;;;;22.20;6.15;;;11.00;99.90;;;;;;4997452;28;20932;-61
2022/02/20 05:44:06;;;;;;;16.60;5.15;;;11.00;99.90;;;;;;5000732;28;20435;-60
2022/02/20 05:46:33;;;;;;;11.65;4.55;;;11.00;99.90;;;;;;5001903;28;20071;-60
2022/02/20 05:49:04;;;;;;;19.00;4.45;;;11.00;99.90;;;;;;5001749;28;20156;-60
2022/02/20 05:51:31;;;;;;;20.15;4.70;;;11.00;99.90;;;;;;5001405;28;20061;-60
2022/02/20 05:53:58;;;;;;;17.08;5.30;;;11.10;99.90;;;;;;4998731;28;20137;-60
2022/02/20 05:56:25;;;;;;;18.08;5.50;;;11.00;99.90;;;;;;5001126;28;20138;-60
2022/02/20 05:58:52;;;;;;;16.90;4.80;;;11.10;99.90;;;;;;4999936;28;20504;-60
2022/02/20 06:01:19;;;;;;;19.52;5.13;;;11.10;99.90;;;;;;5000665;28;20085;-60
2022/02/20 06:03:46;;;;;;;13.43;4.43;;;11.10;99.90;;;;;;4996704;28;20140;-60
2022/02/20 06:06:12;;;;;;;15.70;5.10;;;11.20;99.90;;;;;;4998941;28;20141;-59
2022/02/20 06:08:40;;;;;;;17.30;4.47;;;11.10;99.90;;;;;;4998773;28;20520;-60
2022/02/20 06:11:07;;;;;;;16.08;4.70;;;11.10;99.90;;;;;;4987505;28;20089;-60
2022/02/20 06:13:34;;;;;;;21.48;5.38;;;11.10;99.90;;;;;;4997983;28;20046;-59
2022/02/20 06:16:00;;;;;;;15.48;4.50;;;11.20;99.90;;;;;;4996795;28;20200;-60
2022/02/20 06:18:27;;;;;;;15.13;4.65;;;11.20;99.90;;;;;;4999020;28;20054;-60
2022/02/20 06:20:54;;;;;;;16.02;4.70;;;11.20;99.90;;;;;;4999858;28;20141;-60
2022/02/20 06:23:21;;;;;;;19.60;5.55;;;11.10;99.90;;;;;;4998269;28;20100;-60
2022/02/20 06:25:48;;;;;;;12.88;4.60;;;11.10;99.90;;;;;;4998531;28;20092;-60
2022/02/20 06:28:15;;;;;;;14.10;4.22;;;11.10;99.90;;;;;;4998918;28;20104;-60
2022/02/20 06:30:42;;;;;;;21.15;5.22;;;11.10;99.90;;;;;;4998360;28;20125;-60
2022/02/20 06:33:10;;;;;;;16.83;4.50;;;11.10;99.90;;;;;;4999037;28;20062;-60
2022/02/20 06:35:37;;;;;;;15.73;5.10;;;11.20;99.90;;;;;;4998647;28;20566;-60
2022/02/20 06:38:05;;;;;;;16.95;4.68;;;11.20;99.90;;;;;;4998957;28;20237;-60
2022/02/20 06:40:32;;;;;;;15.95;4.78;;;11.10;99.90;;;;;;4998456;28;20585;-60
2022/02/20 06:42:59;;;;;;;20.40;5.20;;;11.10;99.90;;;;;;4999250;28;20057;-60
2022/02/20 06:45:26;;;;;;;19.67;5.20;;;11.10;99.90;;;;;;4997471;28;20179;-60
2022/02/20 06:47:53;;;;;;;20.13;5.38;;;11.10;99.90;;;;;;4998857;28;20054;-60
2022/02/20 06:50:19;;;;;;;19.27;5.18;;;11.20;99.90;;;;;;4998391;28;20533;-60
2022/02/20 06:52:46;;;;;;;19.33;5.63;;;11.20;99.90;;;;;;4997188;28;20129;-60
2022/02/20 06:55:13;;;;;;;16.35;4.65;;;11.20;99.90;;;;;;4998489;28;20049;-60
2022/02/20 06:57:40;;;;;;;20.05;5.22;;;11.20;99.90;;;;;;4997280;28;20046;-60
2022/02/20 07:00:18;;;;;;;13.93;5.13;;;11.20;99.90;;;;;;4997817;28;20058;-61
2022/02/20 07:02:45;;;;;;;18.70;6.07;;;11.20;99.90;;;;;;4998199;28;20045;-60
2022/02/20 07:05:12;;;;;;;23.95;6.63;;;11.20;99.90;;;;;;4999343;28;20551;-61
2022/02/20 07:07:39;;;;;;;19.20;5.25;;;11.30;99.90;;;;;;4998604;28;20127;-58
2022/02/20 07:10:08;;;;;;;20.25;6.00;;;11.30;99.90;;;;;;4994245;28;20133;-61
2022/02/20 07:12:35;;;;;;;19.40;5.78;;;11.30;99.90;;;;;;4987109;28;20134;-60
2022/02/20 07:15:03;;;;;;;14.05;5.22;;;11.30;99.90;;;;;;4985356;28;20086;-61
2022/02/20 07:17:30;;;;;;;17.33;5.55;;;11.30;99.90;;;;;;4995648;28;20588;-60
2022/02/20 07:19:58;;;;;;;24.08;7.20;;;11.30;99.90;;;;;;5001310;28;20128;-60
2022/02/20 07:22:28;;;;;;;21.30;5.32;;;11.30;99.90;;;;;;5005267;28;20061;-60
2022/02/20 07:24:55;;;;;;;21.50;6.80;;;11.30;99.90;;;;;;4998753;28;20395;-59
2022/02/20 07:27:24;;;;;;;19.38;5.95;;;11.30;99.90;;;;;;4999922;28;20134;-60
2022/02/20 07:29:51;;;;;;;17.83;4.63;;;11.30;99.90;;;;;;4996735;28;20126;-61
2022/02/20 07:32:18;;;;;;;19.63;5.25;;;11.30;99.90;;;;;;4987410;28;20556;-60
2022/02/20 07:34:44;;;;;;;18.00;5.72;;;11.30;99.90;;;;;;4999966;28;20064;-61
2022/02/20 07:37:11;;;;;;;15.70;5.50;;;11.30;99.90;;;;;;4999395;28;20132;-59
2022/02/20 07:39:38;;;;;;;21.05;5.32;;;11.30;99.90;;;;;;4992989;28;20410;-61
2022/02/20 07:42:06;;;;;;;21.60;5.55;;;11.40;99.90;;;;;;4999260;28;20081;-60
2022/02/20 07:44:34;;;;;;;16.58;5.82;;;11.30;99.90;;;;;;4997458;28;20567;-60
2022/02/20 07:47:01;;;;;;;20.88;6.22;;;11.30;99.90;;;;;;4997098;28;20049;-60
2022/02/20 07:49:29;;;;;;;15.00;5.32;;;11.30;99.90;;;;;;4997774;28;20100;-60
2022/02/20 07:51:56;;;;;;;18.95;6.20;;;11.30;99.90;;;;;;4996049;28;20137;-60
2022/02/20 07:54:23;;;;;;;15.85;5.38;;;11.30;99.90;;;;;;4997066;28;20635;-59
2022/02/20 07:56:50;;;;;;;19.63;5.50;;;11.30;99.90;;;;;;4999300;28;20474;-59
2022/02/20 07:59:17;;;;;;;20.77;5.80;;;11.30;99.90;;;;;;4980775;28;20495;-60
2022/02/20 08:01:44;;;;;;;21.98;6.97;;;11.30;99.90;;;;;;4996577;28;20088;-59
2022/02/20 08:04:10;;;;;;;19.40;6.28;;;11.30;99.90;;;;;;4996401;28;20056;-59
2022/02/20 08:06:37;;;;;;;18.40;4.90;;;11.30;99.90;;;;;;4998143;28;20050;-59
2022/02/20 08:09:05;;;;;;;15.95;6.05;;;11.40;99.90;;;;;;4998092;28;20081;-60
2022/02/20 08:11:32;;;;;;;16.90;5.65;;;11.40;99.90;;;;;;4996641;28;20136;-59
2022/02/20 08:13:59;;;;;;;22.88;6.75;;;11.40;99.90;;;;;;4995468;28;20046;-59
2022/02/20 08:16:26;;;;;;;22.98;6.95;;;11.40;99.90;;;;;;4999836;28;20487;-59
2022/02/20 08:18:53;;;;;;;17.02;5.50;;;11.40;99.90;;;;;;4993125;28;20081;-59
2022/02/20 08:21:21;;;;;;;24.48;6.70;;;11.40;99.90;;;;;;4996758;28;20133;-60
2022/02/20 08:23:50;;;;;;;22.23;6.82;;;11.40;99.90;;;;;;4998021;28;20046;-61
2022/02/20 08:26:17;;;;;;;23.05;6.43;;;11.50;99.90;;;;;;4997502;28;20116;-59
2022/02/20 08:28:44;;;;;;;21.25;7.07;;;11.50;99.90;;;;;;4996249;28;20134;-59
2022/02/20 08:31:11;;;;;;;24.17;6.93;;;11.50;99.90;;;;;;4995673;28;20084;-60
2022/02/20 08:33:38;;;;;;;32.38;7.13;;;11.50;99.90;;;;;;4985748;28;20108;-59
2022/02/20 08:36:14;;;;;;;25.13;7.03;;;11.50;99.90;;;;;;4992709;28;20107;-60
2022/02/20 08:38:41;;;;;;;23.98;6.85;;;11.60;99.90;;;;;;4991656;28;20056;-59
2022/02/20 08:41:08;;;;;;;20.40;6.78;;;11.60;99.90;;;;;;4996951;28;20163;-60
2022/02/20 08:43:35;;;;;;;22.95;7.22;;;11.60;99.90;;;;;;4991685;28;20506;-59
2022/02/20 08:46:01;;;;;;;21.40;7.60;;;11.60;99.90;;;;;;4991473;28;20132;-59
2022/02/20 08:48:36;;;;;;;22.58;6.47;;;11.60;99.90;;;;;;4991570;28;20180;-59
2022/02/20 08:51:06;;;;;;;20.42;7.35;;;11.70;99.90;;;;;;4996787;28;20084;-60
2022/02/20 08:53:35;;;;;;;25.92;6.60;;;11.70;99.90;;;;;;4994866;28;20084;-58
2022/02/20 08:56:02;;;;;;;20.60;6.70;;;11.70;99.90;;;;;;4987446;28;20054;-61
2022/02/20 08:58:29;;;;;;;22.38;6.85;;;11.60;99.90;;;;;;4983252;28;20454;-59
2022/02/20 09:00:56;;;;;;;19.83;5.90;;;11.60;99.90;;;;;;4988711;28;20112;-59
2022/02/20 09:03:23;;;;;;;21.30;6.82;;;11.60;99.90;;;;;;4984783;28;20141;-59
2022/02/20 09:05:50;;;;;;;21.15;6.72;;;11.60;99.90;;;;;;4986941;28;20100;-60
2022/02/20 09:08:19;;;;;;;22.40;7.28;;;11.60;99.90;;;;;;4991022;28;20178;-60
2022/02/20 09:10:48;;;;;;;24.52;6.07;;;11.60;99.90;;;;;;4991461;28;20050;-59
2022/02/20 09:13:15;;;;;;;20.20;4.95;;;11.60;99.90;;;;;;4995468;28;20053;-59
2022/02/20 09:15:42;;;;;;;24.35;6.70;;;11.60;99.90;;;;;;4989730;28;20129;-60
2022/02/20 09:18:09;;;;;;;23.33;6.95;;;11.60;99.90;;;;;;4993000;28;20769;-59
2022/02/20 09:20:36;;;;;;;22.45;6.15;;;11.70;99.90;;;;;;4988701;28;20077;-61
2022/02/20 09:23:08;;;;;;;22.02;6.07;;;11.70;99.90;;;;;;4993039;28;20398;-60
2022/02/20 09:25:35;;;;;;;21.77;6.47;;;11.60;99.90;;;;;;4988530;28;20077;-59
2022/02/20 09:28:01;;;;;;;21.05;6.25;;;11.70;99.90;;;;;;4997144;28;20108;-60
2022/02/20 09:30:28;;;;;;;20.70;5.60;;;11.70;99.90;;;;;;4992904;28;20060;-60
2022/02/20 09:32:55;;;;;;;20.35;6.95;;;11.70;99.90;;;;;;4993491;28;20049;-60
2022/02/20 09:35:24;;;;;;;20.73;6.55;;;11.70;99.90;;;;;;4991108;28;20054;-60
2022/02/20 09:37:52;;;;;;;21.33;5.88;;;11.70;99.90;;;;;;4993075;28;20057;-60
2022/02/20 09:40:18;;;;;;;20.25;5.35;;;11.80;99.90;;;;;;4991414;28;20050;-59
2022/02/20 09:42:47;;;;;;;20.92;5.55;;;12.00;99.90;;;;;;4994119;28;20103;-60
2022/02/20 09:45:14;;;;;;;22.25;6.63;;;12.10;99.90;;;;;;4990911;28;20081;-59
2022/02/20 09:47:40;;;;;;;19.77;6.53;;;12.10;99.90;;;;;;4990240;28;20471;-60
2022/02/20 09:50:08;;;;;;;23.25;6.80;;;12.20;99.90;;;;;;4974800;28;20065;-60
2022/02/20 09:52:34;;;;;;;24.00;7.22;;;12.20;99.90;;;;;;4984861;28;20314;-59
2022/02/20 09:55:01;;;;;;;20.05;6.60;;;12.10;99.90;;;;;;4990236;28;20050;-60
2022/02/20 09:57:29;;;;;;;21.83;5.93;;;12.10;99.90;;;;;;4988668;28;20042;-59
2022/02/20 09:59:56;;;;;;;21.70;6.05;;;12.10;99.90;;;;;;4993022;28;20046;-60
2022/02/20 10:02:25;;;;;;;20.63;6.07;;;12.10;99.90;;;;;;4988391;28;20045;-60
2022/02/20 10:04:53;;;;;;;21.23;5.68;;;12.10;99.90;;;;;;4992403;28;20133;-61
2022/02/20 10:07:36;;;;;;;19.50;7.38;;;12.10;99.90;;;;;;4990682;28;20677;-61
2022/02/20 10:10:13;;;;;;;14.85;5.18;;;12.10;99.90;;;;;;4991210;28;20401;-60
2022/02/20 10:12:40;;;;;;;18.75;4.97;;;12.20;99.90;;;;;;4996609;28;20050;-60
2022/02/20 10:15:30;;;;;;;20.52;5.88;;;12.20;99.90;;;;;;4997490;28;20427;-60
2022/02/20 10:18:10;;;;;;;19.80;5.85;;;12.20;99.90;;;;;;4998727;28;20164;-60
2022/02/20 10:20:37;;;;;;;18.30;5.65;;;12.20;99.90;;;;;;4998506;28;20119;-60
2022/02/20 10:23:08;;;;;;;20.38;6.35;;;12.30;99.90;;;;;;4994483;28;20137;-60
2022/02/20 10:25:44;;;;;;;18.70;5.88;;;12.30;99.90;;;;;;4994252;28;20081;-60
2022/02/20 10:28:10;;;;;;;15.63;5.28;;;12.30;99.90;;;;;;4993635;28;20137;-60
2022/02/20 10:30:37;;;;;;;20.73;6.43;;;12.30;99.90;;;;;;4988387;28;20125;-59
2022/02/20 10:33:12;;;;;;;20.33;5.47;;;12.30;99.90;;;;;;4991530;28;20112;-61
2022/02/20 10:35:42;;;;;;;23.80;7.45;;;12.40;99.90;;;;;;4988556;28;20133;-60
2022/02/20 10:38:34;;;;;;;18.45;5.43;;;12.30;99.90;;;;;;4993189;28;20163;-60
2022/02/20 10:41:04;;;;;;;19.00;5.43;;;12.30;99.90;;;;;;4992982;28;20052;-60
2022/02/20 10:43:37;;;;;;;21.08;5.88;;;12.40;99.90;;;;;;4987817;28;20055;-59
2022/02/20 10:46:11;;;;;;;18.83;6.38;;;12.40;99.90;;;;;;4988776;28;20125;-60
2022/02/20 10:48:40;;;;;;;18.13;5.90;;;12.50;99.90;;;;;;4988874;28;20453;-60
2022/02/20 10:51:10;;;;;;;16.88;5.50;;;12.50;99.90;;;;;;4986774;28;20053;-60
2022/02/20 10:53:38;;;;;;;16.92;5.90;;;12.60;99.90;;;;;;4990994;28;20097;-59
2022/02/20 10:56:05;;;;;;;18.10;4.85;;;12.60;99.90;;;;;;4995378;28;20054;-60
2022/02/20 10:58:35;;;;;;;16.13;6.72;;;12.50;99.90;;;;;;4993779;28;20077;-59
2022/02/20 11:01:03;;;;;;;23.42;7.15;;;12.60;99.90;;;;;;4994787;28;20080;-60
2022/02/20 11:03:31;;;;;;;21.08;5.50;;;12.60;99.90;;;;;;4998015;28;20042;-60
2022/02/20 11:05:59;;;;;;;22.40;5.70;;;12.70;99.90;;;;;;4997123;28;20152;-61
2022/02/20 11:08:29;;;;;;;17.02;6.07;;;12.70;99.90;;;;;;4995255;28;20638;-59
2022/02/20 11:10:56;;;;;;;22.40;7.60;;;12.70;99.90;;;;;;4996889;28;20054;-60
2022/02/20 11:13:23;;;;;;;17.23;5.88;;;12.80;99.90;;;;;;4992519;28;20121;-60
2022/02/20 11:15:54;;;;;;;19.33;6.22;;;12.90;99.90;;;;;;4998367;28;20054;-61
2022/02/20 11:18:24;;;;;;;19.40;6.60;;;12.80;99.90;;;;;;4993375;28;20541;-61
2022/02/20 11:20:52;;;;;;;16.88;6.10;;;12.80;99.90;;;;;;4996863;28;20053;-61
2022/02/20 11:23:28;;;;;;;15.57;6.80;;;12.80;99.90;;;;;;4990028;28;20061;-61
2022/02/20 11:25:56;;;;;;;23.08;6.80;;;12.70;99.90;;;;;;4986438;28;20356;-61
2022/02/20 11:28:23;;;;;;;20.92;6.75;;;12.70;99.90;;;;;;4993950;28;20553;-60
2022/02/20 11:30:50;;;;;;;21.30;8.55;;;12.60;99.90;;;;;;4991933;28;20082;-60
2022/02/20 11:33:17;;;;;;;25.92;7.35;;;12.60;99.90;;;;;;5007243;28;20138;-59
2022/02/20 11:35:45;;;;;;;20.73;6.95;;;12.60;99.90;;;;;;4982280;28;20141;-60
2022/02/20 11:38:14;;;;;;;19.75;5.63;;;12.60;99.90;;;;;;4997908;28;20161;-60
2022/02/20 11:40:58;;;;;;;20.63;5.55;;;12.70;99.90;;;;;;4988437;28;20241;-60
2022/02/20 11:43:46;;;;;;;24.10;7.40;;;12.70;99.90;;;;;;4994944;28;20049;-59
2022/02/20 11:46:14;;;;;;;23.90;7.05;;;12.60;99.90;;;;;;4997358;28;20053;-60
2022/02/20 11:49:26;;;;;;;21.23;5.55;;;12.60;99.90;;;;;;4992688;28;20129;-60
2022/02/20 11:52:04;;;;;;;18.50;5.35;;;12.60;99.90;;;;;;4982504;28;20085;-60
2022/02/20 11:54:32;;;;;;;17.08;5.57;;;12.60;99.90;;;;;;4999737;28;20423;-61
2022/02/20 11:57:15;;;;;;;21.48;6.15;;;12.60;99.90;;;;;;4999075;28;20355;-60
2022/02/20 11:59:46;;;;;;;;;;;12.70;99.90;;;;;;5006444;28;20062;-61
2022/02/20 12:02:13;;;;;;;20.08;5.80;;;12.60;99.90;;;;;;4997846;28;20016;-62
2022/02/20 12:04:55;;;;;;;19.90;6.40;;;12.60;99.90;;;;;;4996769;28;20370;-62
2022/02/20 12:07:48;;;;;;;19.65;6.28;;;12.70;99.90;;;;;;5003481;28;20052;-61
2022/02/20 12:10:21;;;;;;;18.60;6.43;;;12.80;99.90;;;;;;4998017;28;20140;-61
2022/02/20 12:12:48;;;;;;;18.55;5.03;;;12.70;99.90;;;;;;5002436;28;20058;-61
2022/02/20 12:15:26;;;;;;;24.98;6.68;;;12.70;99.90;;;;;;4998877;28;20092;-61
2022/02/20 12:18:03;;;;;;;19.90;6.82;;;12.60;99.90;;;;;;5006766;28;20092;-61
2022/02/20 12:20:51;;;;;;;19.42;6.05;;;12.60;99.90;;;;;;4999042;28;20225;-61
2022/02/20 12:23:47;;;;;;;21.08;5.63;;;12.50;99.90;;;;;;5001273;28;20454;-62
2022/02/20 12:26:50;;;;;;;15.07;5.25;;;12.50;99.90;;;;;;4998159;28;20209;-61
2022/02/20 12:29:18;;;;;;;20.63;6.30;;;12.50;99.90;;;;;;4997417;28;20147;-62
2022/02/20 12:31:58;;;;;;;22.25;6.47;;;12.50;99.90;;;;;;4997612;28;20223;-61
2022/02/20 12:34:50;;;;;;;20.83;7.28;;;12.50;99.90;;;;;;5001835;28;20160;-62
2022/02/20 12:37:21;;;;;;;19.95;5.88;;;12.50;99.90;;;;;;4998517;28;20152;-61
2022/02/20 12:39:52;;;;;;;21.05;6.25;;;12.50;99.90;;;;;;4988330;28;20050;-61
2022/02/20 12:42:19;;;;;;;19.17;5.90;;;12.60;99.90;;;;;;4989586;28;20129;-60
2022/02/20 12:44:50;;;;;;;22.98;6.95;;;12.50;99.90;;;;;;4995466;28;20684;-60
2022/02/20 12:47:17;;;;;;;16.38;5.50;;;12.60;99.90;;;;;;4999164;28;20136;-60